AirNav   Pilot Hours Calculator
 
 843 users online  

8WI2 Runway Leasing Inc Nr 1 Airport
Plainfield, Wisconsin, USA

GOING TO PLAINFIELD?


FAA INFORMATION EFFECTIVE 26 JANUARY 2023

Location

FAA Identifier: 8WI2
Lat/Long: 44-13-29.3000N 089-31-54.5100W
44-13.488333N 089-31.908500W
44.2248056,-89.5318083
(estimated)
Elevation: 1100 ft. / 335 m (estimated)
Variation: 00W (1985)
From city: 2 miles NW of PLAINFIELD, WI
Time zone: UTC -6 (UTC -5 during Daylight Saving Time)
Zip code: 54966

Airport Operations

Airport use: Private use. Permission required prior to landing
Activation date: 03/1977
Control tower: no
ARTCC: MINNEAPOLIS CENTER
FSS: GREEN BAY FLIGHT SERVICE STATION
Attendance: JUN-SEP DAWN-DUSK, OCT-MAY MON-FRI 0800-1700
Wind indicator: yes
Segmented circle: no

Airport Communications

WX AWOS-3PT at Y50 (15 nm SE): 119.475 (920-787-0515)
WX ASOS at ISW (15 nm NW): 126.575 (715-421-2120)
WX AWOS-3 at STE (19 nm N): 119.275 (715-344-5960)

Airport Services

Fuel available: A

Runway Information

Runway 18R/36L

Dimensions: 2400 x 35 ft. / 732 x 11 m
Surface: asphalt
RUNWAY 18R  RUNWAY 36L
Traffic pattern: leftleft
Obstructions: bldgsnone

Runway 18L/36R

Dimensions: 2400 x 35 ft. / 732 x 11 m
Surface: gravel
RUNWAY 18L  RUNWAY 36R
Traffic pattern: leftleft
Obstructions: bldgs
BUILDING & WIRE ON NORTH ENDS.
none

Airport Ownership and Management from official FAA records

Ownership: Privately-owned
Owner: RUNWAY LEASING INC
PO BOX 935
PLOVER, WI 54467
Phone (715) 341-9393
Manager: REABE SPRAYING SERVICE
PO BOX 935
PLOVER, WI 54467
Phone 715-335-6810

Additional Remarks

FOR CD CTC MINNEAPOLIS ARTCC AT 651-463-5588.

Instrument Procedures

There are no published instrument procedures at 8WI2.

Some nearby airports with instrument procedures:

Y50 - Wautoma Municipal Airport (15 nm SE)
KISW - Alexander Field South Wood County Airport (16 nm NW)
KSTE - Stevens Point Municipal Airport (19 nm N)
63C - Adams County Airport-Legion Field (19 nm SW)
KPCZ - Waupaca Municipal Airport (23 nm E)
 
Loc | Ops | Rwys | IFR | FBO | Links
Com | Nav | Svcs | Stats | Notes
Area around 8WI2 (Runway Leasing Inc Nr 1 Airport)
 
Road maps at: MapQuest Bing Google
 
Aerial photo
No photo
 
Sectional chart

 
Airport distance calculator
Flying to Runway Leasing Inc Nr 1 Airport? Find the distance to fly.

From to 8WI2

Sunrise and sunset
Times for 06-Feb-2023
 Local
(UTC-6)
 Zulu
(UTC)
Morning civil twilight06:4112:41
Sunrise07:1113:11
Sunset17:1323:13
Evening civil twilight17:4423:44

Current date and time
Zulu (UTC)  07-Feb-2023 05:03:09
Local (UTC-6)  06-Feb-2023 23:03:09
 
METAR
KY50 
15nm SE 
070456Z AUTO 17006KT 7SM -RA SCT043 OVC060 03/01 A2964 RMK AO2 LTG DSNT N AND E SLP044 P0000 T00280006 $
KISW 
15nm NW 
070454Z AUTO 11004KT 8SM OVC034 01/M01 A2962 RMK AO2 RAE12B31E40 SLP041 P0001 T00111006
KSTE 
19nm N 
070455Z AUTO 11003KT 7SM -RA OVC037 02/M01 A2964 RMK AO2 P0002 T00161006
KPCZ 
23nm E 
070455Z AUTO 18010G17KT 10SM -RA SCT041 BKN050 OVC070 04/M01 A2965 RMK AO2 T00431007 400431121
TAF
KCWA 
33nm N 
070352Z 0704/0724 13011G20KT 3SM -FZRASN BR SCT013 OVC030 WS020/17050KT FM070500 18012G21KT 3SM -SHSN BR OVC009 WS020/20045KT FM070900 26012G20KT P6SM OVC006 FM071500 28014G23KT P6SM BKN013 FM071800 27012G22KT P6SM SCT018 BKN030 FM072200 27010KT P6SM SCT035
KVOK 
37nm SW 
061700Z 0617/0723 13010G15KT 9999 FEW170 QNH2976INS BECMG 0702/0703 15012KT 9000 -SN OVC025 WS020/19050KT 620259 QNH2959INS BECMG 0705/0706 19010G15KT 9000 -RA OVC015 620159 QNH2959INS TEMPO 0706/0708 27015G25KT OVC008 620089 BECMG 0712/0713 27015G25KT 9999 NSW OVC015 620159 QNH2976INS BECMG 0716/0717 28015G25KT 9999 SCT015 OVC025 620259 QNH2993INS TX01/0705Z TNM08/0617Z LAST NO AMDS AFT 0622 NEXT 0709
NOTAMs
Click for the latest NOTAMs
NOTAMs are issued by the DoD/FAA and will open in a separate window not controlled by AirNav.

 

 
 

Would you like to see your business listed on this page?

 If your business provides an interesting product or service to pilots, flight crews, aircraft, or users of the Runway Leasing Inc Nr 1 Airport, you should consider listing it here.  To start the listing process, click on the button below
 
Add a business
 

Other Pages about Runway Leasing Inc Nr 1 Airport

Update a link
 
Copyright © AirNav, LLC. All rights reserved. Privacy Policy  Contact